sensor_id;sensor_type;location;lat;lon;timestamp;pressure;altitude;pressure_sealevel;temperature;humidity
9899;BME280;4988;49.238;6.698;2023-07-16T00:00:18;98900.75;;;18.06;100.00
9899;BME280;4988;49.238;6.698;2023-07-16T00:02:45;98900.53;;;17.97;100.00
9899;BME280;4988;49.238;6.698;2023-07-16T00:05:10;98886.78;;;17.89;100.00
9899;BME280;4988;49.238;6.698;2023-07-16T00:07:35;98884.31;;;17.86;100.00
9899;BME280;4988;49.238;6.698;2023-07-16T00:10:01;98891.56;;;17.85;100.00
9899;BME280;4988;49.238;6.698;2023-07-16T00:12:27;98880.16;;;17.93;100.00
9899;BME280;4988;49.238;6.698;2023-07-16T00:14:52;98880.16;;;17.93;100.00
9899;BME280;4988;49.238;6.698;2023-07-16T00:17:18;98884.81;;;17.80;100.00
9899;BME280;4988;49.238;6.698;2023-07-16T00:19:43;98875.91;;;17.79;100.00
9899;BME280;4988;49.238;6.698;2023-07-16T00:22:08;98879.44;;;17.80;100.00
9899;BME280;4988;49.238;6.698;2023-07-16T00:24:34;98885.69;;;17.69;100.00
9899;BME280;4988;49.238;6.698;2023-07-16T00:26:59;98894.63;;;17.69;100.00
9899;BME280;4988;49.238;6.698;2023-07-16T00:29:24;98894.28;;;17.63;100.00
9899;BME280;4988;49.238;6.698;2023-07-16T00:31:49;98893.66;;;17.59;100.00
9899;BME280;4988;49.238;6.698;2023-07-16T00:34:15;98897.53;;;17.55;100.00
9899;BME280;4988;49.238;6.698;2023-07-16T00:36:40;98898.78;;;17.62;100.00
9899;BME280;4988;49.238;6.698;2023-07-16T00:39:05;98909.66;;;17.49;100.00
9899;BME280;4988;49.238;6.698;2023-07-16T00:41:31;98909.06;;;17.46;100.00
9899;BME280;4988;49.238;6.698;2023-07-16T00:43:56;98914.78;;;17.52;100.00
9899;BME280;4988;49.238;6.698;2023-07-16T00:46:22;98931.06;;;17.40;100.00
9899;BME280;4988;49.238;6.698;2023-07-16T00:48:48;98935.94;;;17.34;100.00
9899;BME280;4988;49.238;6.698;2023-07-16T00:51:14;98937.16;;;17.30;100.00
9899;BME280;4988;49.238;6.698;2023-07-16T00:53:41;98946.44;;;17.26;100.00
9899;BME280;4988;49.238;6.698;2023-07-16T00:56:08;98937.63;;;17.24;100.00
9899;BME280;4988;49.238;6.698;2023-07-16T00:58:34;98944.22;;;17.20;100.00
9899;BME280;4988;49.238;6.698;2023-07-16T01:01:00;98945.56;;;17.26;100.00
9899;BME280;4988;49.238;6.698;2023-07-16T01:03:25;98954.00;;;17.21;100.00
9899;BME280;4988;49.238;6.698;2023-07-16T01:05:57;98947.38;;;17.14;100.00
9899;BME280;4988;49.238;6.698;2023-07-16T01:08:35;98955.19;;;17.17;100.00
9899;BME280;4988;49.238;6.698;2023-07-16T01:11:03;98965.25;;;17.15;100.00
9899;BME280;4988;49.238;6.698;2023-07-16T01:13:29;98957.50;;;17.10;100.00
9899;BME280;4988;49.238;6.698;2023-07-16T01:15:55;98959.47;;;17.08;100.00
9899;BME280;4988;49.238;6.698;2023-07-16T01:18:20;98964.22;;;17.04;100.00
9899;BME280;4988;49.238;6.698;2023-07-16T01:20:46;98969.84;;;17.01;100.00
9899;BME280;4988;49.238;6.698;2023-07-16T01:31:10;98970.50;;;16.92;100.00
9899;BME280;4988;49.238;6.698;2023-07-16T01:33:37;98968.38;;;16.84;100.00
9899;BME280;4988;49.238;6.698;2023-07-16T01:36:04;98970.22;;;16.84;100.00
9899;BME280;4988;49.238;6.698;2023-07-16T01:38:29;98974.34;;;16.77;100.00
9899;BME280;4988;49.238;6.698;2023-07-16T01:40:55;98977.03;;;16.77;100.00
9899;BME280;4988;49.238;6.698;2023-07-16T01:43:20;98987.53;;;16.80;100.00
9899;BME280;4988;49.238;6.698;2023-07-16T01:45:46;98980.91;;;16.72;100.00
9899;BME280;4988;49.238;6.698;2023-07-16T01:48:29;98984.91;;;16.67;100.00
9899;BME280;4988;49.238;6.698;2023-07-16T01:50:55;98988.91;;;16.61;100.00
9899;BME280;4988;49.238;6.698;2023-07-16T01:53:20;98982.69;;;16.61;100.00
9899;BME280;4988;49.238;6.698;2023-07-16T01:55:46;98982.56;;;16.62;100.00
9899;BME280;4988;49.238;6.698;2023-07-16T01:58:11;98980.72;;;16.63;100.00
9899;BME280;4988;49.238;6.698;2023-07-16T02:00:36;98985.25;;;16.62;100.00
9899;BME280;4988;49.238;6.698;2023-07-16T02:03:02;98986.44;;;16.58;100.00
9899;BME280;4988;49.238;6.698;2023-07-16T02:05:27;98993.81;;;16.67;100.00
9899;BME280;4988;49.238;6.698;2023-07-16T02:07:53;98998.16;;;16.57;100.00
9899;BME280;4988;49.238;6.698;2023-07-16T02:10:18;98990.44;;;16.52;100.00
9899;BME280;4988;49.238;6.698;2023-07-16T02:12:43;98984.22;;;16.52;100.00
9899;BME280;4988;49.238;6.698;2023-07-16T02:15:09;98988.97;;;16.48;100.00
9899;BME280;4988;49.238;6.698;2023-07-16T02:17:35;98989.41;;;16.42;100.00
9899;BME280;4988;49.238;6.698;2023-07-16T02:20:00;99005.84;;;16.37;100.00
9899;BME280;4988;49.238;6.698;2023-07-16T02:22:25;98999.97;;;16.32;100.00
9899;BME280;4988;49.238;6.698;2023-07-16T02:24:50;99003.38;;;16.34;100.00
9899;BME280;4988;49.238;6.698;2023-07-16T02:27:16;99002.41;;;16.35;100.00
9899;BME280;4988;49.238;6.698;2023-07-16T02:29:41;99008.34;;;16.28;100.00
9899;BME280;4988;49.238;6.698;2023-07-16T02:32:07;99007.81;;;16.22;100.00
9899;BME280;4988;49.238;6.698;2023-07-16T02:34:32;99011.88;;;16.28;100.00
9899;BME280;4988;49.238;6.698;2023-07-16T02:36:57;99017.25;;;16.28;100.00
9899;BME280;4988;49.238;6.698;2023-07-16T02:39:23;99016.53;;;16.26;100.00
9899;BME280;4988;49.238;6.698;2023-07-16T02:41:49;99015.19;;;16.32;100.00
9899;BME280;4988;49.238;6.698;2023-07-16T02:44:14;99022.09;;;16.23;100.00
9899;BME280;4988;49.238;6.698;2023-07-16T02:46:40;99022.34;;;16.20;100.00
9899;BME280;4988;49.238;6.698;2023-07-16T02:49:06;99013.72;;;16.15;100.00
9899;BME280;4988;49.238;6.698;2023-07-16T02:51:32;99012.88;;;16.14;100.00
9899;BME280;4988;49.238;6.698;2023-07-16T02:53:57;99020.09;;;16.14;100.00
9899;BME280;4988;49.238;6.698;2023-07-16T02:56:22;99021.06;;;16.13;100.00
9899;BME280;4988;49.238;6.698;2023-07-16T02:58:48;99027.16;;;16.15;100.00
9899;BME280;4988;49.238;6.698;2023-07-16T03:01:13;99032.00;;;16.10;100.00
9899;BME280;4988;49.238;6.698;2023-07-16T03:03:38;99032.00;;;16.10;100.00
9899;BME280;4988;49.238;6.698;2023-07-16T03:06:04;99032.63;;;16.13;100.00
9899;BME280;4988;49.238;6.698;2023-07-16T03:08:29;99040.81;;;16.12;100.00
9899;BME280;4988;49.238;6.698;2023-07-16T03:10:56;99038.44;;;16.20;100.00
9899;BME280;4988;49.238;6.698;2023-07-16T03:13:22;99042.84;;;16.08;100.00
9899;BME280;4988;49.238;6.698;2023-07-16T03:15:47;99048.53;;;16.03;100.00
9899;BME280;4988;49.238;6.698;2023-07-16T03:18:13;99049.19;;;16.07;100.00
9899;BME280;4988;49.238;6.698;2023-07-16T03:20:38;99046.38;;;16.08;100.00
9899;BME280;4988;49.238;6.698;2023-07-16T03:23:03;99051.88;;;16.07;100.00
9899;BME280;4988;49.238;6.698;2023-07-16T03:25:29;99051.97;;;16.18;100.00
9899;BME280;4988;49.238;6.698;2023-07-16T03:27:54;99058.00;;;16.09;100.00
9899;BME280;4988;49.238;6.698;2023-07-16T03:30:19;99058.63;;;16.00;100.00
9899;BME280;4988;49.238;6.698;2023-07-16T03:32:45;99063.47;;;15.95;100.00
9899;BME280;4988;49.238;6.698;2023-07-16T03:35:10;99061.31;;;15.87;100.00
9899;BME280;4988;49.238;6.698;2023-07-16T03:37:35;99060.44;;;15.86;100.00
9899;BME280;4988;49.238;6.698;2023-07-16T03:40:13;99062.56;;;15.81;100.00
9899;BME280;4988;49.238;6.698;2023-07-16T03:42:40;99069.84;;;15.79;100.00
9899;BME280;4988;49.238;6.698;2023-07-16T03:45:05;99066.75;;;15.72;100.00
9899;BME280;4988;49.238;6.698;2023-07-16T03:47:31;99073.06;;;15.71;100.00
9899;BME280;4988;49.238;6.698;2023-07-16T03:49:56;99077.47;;;15.72;100.00
9899;BME280;4988;49.238;6.698;2023-07-16T03:52:21;99076.84;;;15.69;100.00
9899;BME280;4988;49.238;6.698;2023-07-16T03:54:47;99078.22;;;15.62;100.00
9899;BME280;4988;49.238;6.698;2023-07-16T03:57:12;99077.47;;;15.59;100.00
9899;BME280;4988;49.238;6.698;2023-07-16T03:59:37;99079.28;;;15.59;100.00
9899;BME280;4988;49.238;6.698;2023-07-16T04:02:02;99081.19;;;15.57;100.00
9899;BME280;4988;49.238;6.698;2023-07-16T04:04:28;99084.09;;;15.54;100.00
9899;BME280;4988;49.238;6.698;2023-07-16T04:06:53;99085.59;;;15.58;100.00
9899;BME280;4988;49.238;6.698;2023-07-16T04:09:19;99084.88;;;15.56;100.00
9899;BME280;4988;49.238;6.698;2023-07-16T04:11:44;99085.06;;;15.53;100.00
9899;BME280;4988;49.238;6.698;2023-07-16T04:14:09;99086.03;;;15.52;100.00
9899;BME280;4988;49.238;6.698;2023-07-16T04:16:35;99091.59;;;15.49;100.00
9899;BME280;4988;49.238;6.698;2023-07-16T04:19:00;99092.28;;;15.52;100.00
9899;BME280;4988;49.238;6.698;2023-07-16T04:21:25;99103.44;;;15.59;100.00
9899;BME280;4988;49.238;6.698;2023-07-16T04:23:50;99103.00;;;15.65;100.00
9899;BME280;4988;49.238;6.698;2023-07-16T04:26:16;99101.75;;;15.71;100.00
9899;BME280;4988;49.238;6.698;2023-07-16T04:28:41;99116.38;;;15.80;100.00
9899;BME280;4988;49.238;6.698;2023-07-16T04:31:06;99117.69;;;15.87;100.00
9899;BME280;4988;49.238;6.698;2023-07-16T04:33:32;99107.63;;;15.90;100.00
9899;BME280;4988;49.238;6.698;2023-07-16T04:35:57;99119.19;;;15.91;100.00
9899;BME280;4988;49.238;6.698;2023-07-16T04:38:22;99120.69;;;15.95;100.00
9899;BME280;4988;49.238;6.698;2023-07-16T04:40:47;99120.50;;;15.98;100.00
9899;BME280;4988;49.238;6.698;2023-07-16T04:43:13;99119.34;;;16.15;100.00
9899;BME280;4988;49.238;6.698;2023-07-16T04:45:38;99122.25;;;16.25;100.00
9899;BME280;4988;49.238;6.698;2023-07-16T04:48:05;99117.06;;;16.22;100.00
9899;BME280;4988;49.238;6.698;2023-07-16T04:50:30;99126.97;;;16.21;100.00
9899;BME280;4988;49.238;6.698;2023-07-16T04:52:55;99122.00;;;16.28;100.00
9899;BME280;4988;49.238;6.698;2023-07-16T04:55:21;99126.00;;;16.35;100.00
9899;BME280;4988;49.238;6.698;2023-07-16T04:57:46;99129.13;;;16.42;100.00
9899;BME280;4988;49.238;6.698;2023-07-16T05:00:12;99133.28;;;16.33;100.00
9899;BME280;4988;49.238;6.698;2023-07-16T05:02:37;99123.97;;;16.52;100.00
9899;BME280;4988;49.238;6.698;2023-07-16T05:05:02;99117.16;;;16.59;100.00
9899;BME280;4988;49.238;6.698;2023-07-16T05:07:28;99122.31;;;16.62;100.00
9899;BME280;4988;49.238;6.698;2023-07-16T05:09:54;99117.78;;;16.63;98.51
9899;BME280;4988;49.238;6.698;2023-07-16T05:12:19;99126.19;;;16.58;98.71
9899;BME280;4988;49.238;6.698;2023-07-16T05:14:47;99126.06;;;16.72;98.41
9899;BME280;4988;49.238;6.698;2023-07-16T05:17:14;99129.09;;;16.68;97.07
9899;BME280;4988;49.238;6.698;2023-07-16T05:19:39;99137.25;;;16.66;98.03
9899;BME280;4988;49.238;6.698;2023-07-16T05:22:05;99133.38;;;16.70;97.96
9899;BME280;4988;49.238;6.698;2023-07-16T05:24:31;99136.34;;;16.79;96.68
9899;BME280;4988;49.238;6.698;2023-07-16T05:26:57;99141.28;;;16.85;96.05
9899;BME280;4988;49.238;6.698;2023-07-16T05:29:22;99139.59;;;16.84;95.99
9899;BME280;4988;49.238;6.698;2023-07-16T05:31:47;99137.88;;;16.83;95.72
9899;BME280;4988;49.238;6.698;2023-07-16T05:34:13;99141.28;;;16.85;94.71
9899;BME280;4988;49.238;6.698;2023-07-16T05:36:39;99152.84;;;17.00;94.58
9899;BME280;4988;49.238;6.698;2023-07-16T05:39:04;99155.41;;;17.01;94.26
9899;BME280;4988;49.238;6.698;2023-07-16T05:41:30;99161.28;;;17.07;94.31
9899;BME280;4988;49.238;6.698;2023-07-16T05:43:55;99156.38;;;17.00;93.81
9899;BME280;4988;49.238;6.698;2023-07-16T05:46:20;99152.91;;;16.98;92.99
9899;BME280;4988;49.238;6.698;2023-07-16T05:48:45;99161.75;;;17.00;92.81
9899;BME280;4988;49.238;6.698;2023-07-16T05:51:11;99160.31;;;17.08;93.54
9899;BME280;4988;49.238;6.698;2023-07-16T05:53:36;99160.09;;;17.11;92.37
9899;BME280;4988;49.238;6.698;2023-07-16T05:56:01;99162.63;;;17.25;91.39
9899;BME280;4988;49.238;6.698;2023-07-16T05:58:27;99160.97;;;17.35;90.43
9899;BME280;4988;49.238;6.698;2023-07-16T06:00:52;99162.34;;;17.41;90.01
9899;BME280;4988;49.238;6.698;2023-07-16T06:03:18;99161.16;;;17.45;90.31
9899;BME280;4988;49.238;6.698;2023-07-16T06:05:43;99160.84;;;17.61;89.51
9899;BME280;4988;49.238;6.698;2023-07-16T06:08:09;99162.75;;;17.72;89.11
9899;BME280;4988;49.238;6.698;2023-07-16T06:10:34;99160.47;;;17.55;87.09
9899;BME280;4988;49.238;6.698;2023-07-16T06:13:00;99158.53;;;17.57;87.88
9899;BME280;4988;49.238;6.698;2023-07-16T06:15:25;99158.41;;;17.58;86.52
9899;BME280;4988;49.238;6.698;2023-07-16T06:17:50;99169.94;;;17.60;86.59
9899;BME280;4988;49.238;6.698;2023-07-16T06:20:16;99170.81;;;17.72;86.17
9899;BME280;4988;49.238;6.698;2023-07-16T06:22:41;99169.19;;;17.82;85.90
9899;BME280;4988;49.238;6.698;2023-07-16T06:25:07;99184.47;;;17.82;83.79
9899;BME280;4988;49.238;6.698;2023-07-16T06:27:32;99177.19;;;17.71;82.17
9899;BME280;4988;49.238;6.698;2023-07-16T06:29:58;99180.91;;;17.81;83.86
9899;BME280;4988;49.238;6.698;2023-07-16T06:32:23;99178.44;;;18.03;83.91
9899;BME280;4988;49.238;6.698;2023-07-16T06:34:48;99184.16;;;18.22;82.16
9899;BME280;4988;49.238;6.698;2023-07-16T06:37:14;99185.00;;;18.34;81.71
9899;BME280;4988;49.238;6.698;2023-07-16T06:39:39;99178.41;;;18.27;79.96
9899;BME280;4988;49.238;6.698;2023-07-16T06:42:04;99188.94;;;18.30;81.92
9899;BME280;4988;49.238;6.698;2023-07-16T06:44:30;99191.75;;;18.28;81.76
9899;BME280;4988;49.238;6.698;2023-07-16T06:46:55;99187.97;;;18.42;81.62
9899;BME280;4988;49.238;6.698;2023-07-16T06:49:21;99189.69;;;18.43;80.64
9899;BME280;4988;49.238;6.698;2023-07-16T06:51:46;99187.47;;;18.37;80.32
9899;BME280;4988;49.238;6.698;2023-07-16T06:54:12;99190.59;;;18.55;79.90
9899;BME280;4988;49.238;6.698;2023-07-16T06:56:37;99194.72;;;18.48;79.51
9899;BME280;4988;49.238;6.698;2023-07-16T06:59:02;99197.91;;;18.42;79.25
9899;BME280;4988;49.238;6.698;2023-07-16T07:01:28;99199.38;;;18.46;79.43
9899;BME280;4988;49.238;6.698;2023-07-16T07:03:54;99190.31;;;18.47;78.55
9899;BME280;4988;49.238;6.698;2023-07-16T07:06:19;99195.22;;;18.53;79.42
9899;BME280;4988;49.238;6.698;2023-07-16T07:08:46;99202.34;;;18.65;79.07
9899;BME280;4988;49.238;6.698;2023-07-16T07:11:11;99197.56;;;18.69;78.24
9899;BME280;4988;49.238;6.698;2023-07-16T07:13:36;99199.50;;;18.44;79.10
9899;BME280;4988;49.238;6.698;2023-07-16T07:16:02;99199.78;;;18.75;79.36
9899;BME280;4988;49.238;6.698;2023-07-16T07:18:27;99200.28;;;18.80;78.70
9899;BME280;4988;49.238;6.698;2023-07-16T07:20:53;99201.84;;;18.60;76.85
9899;BME280;4988;49.238;6.698;2023-07-16T07:23:18;99199.88;;;18.51;77.37
9899;BME280;4988;49.238;6.698;2023-07-16T07:25:48;99205.38;;;18.49;78.25
9899;BME280;4988;49.238;6.698;2023-07-16T07:28:14;99205.53;;;18.59;77.41
9899;BME280;4988;49.238;6.698;2023-07-16T07:30:40;99207.25;;;18.60;78.36
9899;BME280;4988;49.238;6.698;2023-07-16T07:33:05;99204.06;;;18.67;78.22
9899;BME280;4988;49.238;6.698;2023-07-16T07:35:30;99217.78;;;18.52;76.80
9899;BME280;4988;49.238;6.698;2023-07-16T07:37:55;99222.56;;;18.60;76.30
9899;BME280;4988;49.238;6.698;2023-07-16T07:40:21;99218.66;;;18.64;75.91
9899;BME280;4988;49.238;6.698;2023-07-16T07:42:46;99228.69;;;18.51;76.97
9899;BME280;4988;49.238;6.698;2023-07-16T07:45:11;99217.81;;;18.86;76.99
9899;BME280;4988;49.238;6.698;2023-07-16T07:47:37;99216.84;;;19.10;74.90
9899;BME280;4988;49.238;6.698;2023-07-16T07:50:02;99217.31;;;19.49;74.90
9899;BME280;4988;49.238;6.698;2023-07-16T07:52:27;99214.81;;;19.69;71.99
9899;BME280;4988;49.238;6.698;2023-07-16T07:54:53;99212.81;;;19.71;70.28
9899;BME280;4988;49.238;6.698;2023-07-16T07:57:19;99218.13;;;19.61;69.93
9899;BME280;4988;49.238;6.698;2023-07-16T07:59:45;99223.69;;;19.48;69.88
9899;BME280;4988;49.238;6.698;2023-07-16T08:02:10;99220.78;;;19.17;69.43
9899;BME280;4988;49.238;6.698;2023-07-16T08:04:35;99212.16;;;19.46;70.64
9899;BME280;4988;49.238;6.698;2023-07-16T08:07:01;99219.72;;;19.64;68.94
9899;BME280;4988;49.238;6.698;2023-07-16T08:09:26;99214.28;;;19.75;67.51
9899;BME280;4988;49.238;6.698;2023-07-16T08:11:52;99222.13;;;19.89;65.52
9899;BME280;4988;49.238;6.698;2023-07-16T08:14:17;99212.19;;;19.79;63.94
9899;BME280;4988;49.238;6.698;2023-07-16T08:16:43;99220.34;;;19.56;63.74
9899;BME280;4988;49.238;6.698;2023-07-16T08:19:08;99223.69;;;19.48;65.32
9899;BME280;4988;49.238;6.698;2023-07-16T08:21:34;99226.28;;;19.38;66.33
9899;BME280;4988;49.238;6.698;2023-07-16T08:24:01;99224.63;;;19.58;65.55
9899;BME280;4988;49.238;6.698;2023-07-16T08:26:26;99218.53;;;19.56;65.81
9899;BME280;4988;49.238;6.698;2023-07-16T08:28:51;99214.03;;;19.78;66.57
9899;BME280;4988;49.238;6.698;2023-07-16T08:31:17;99204.91;;;20.02;64.89
9899;BME280;4988;49.238;6.698;2023-07-16T08:33:43;99210.69;;;19.97;63.66
9899;BME280;4988;49.238;6.698;2023-07-16T08:36:09;99212.25;;;20.00;62.32
9899;BME280;4988;49.238;6.698;2023-07-16T08:38:34;99213.94;;;19.68;61.87
9899;BME280;4988;49.238;6.698;2023-07-16T08:41:00;99218.25;;;19.59;63.19
9899;BME280;4988;49.238;6.698;2023-07-16T08:43:26;99219.75;;;19.52;63.89
9899;BME280;4988;49.238;6.698;2023-07-16T08:45:53;99215.44;;;19.50;63.43
9899;BME280;4988;49.238;6.698;2023-07-16T08:48:19;99224.13;;;19.76;64.95
9899;BME280;4988;49.238;6.698;2023-07-16T08:50:48;99223.75;;;20.13;65.30
9899;BME280;4988;49.238;6.698;2023-07-16T08:53:17;99224.88;;;20.32;63.20
9899;BME280;4988;49.238;6.698;2023-07-16T08:55:44;99220.91;;;20.57;61.91
9899;BME280;4988;49.238;6.698;2023-07-16T08:58:12;99215.44;;;20.89;59.64
9899;BME280;4988;49.238;6.698;2023-07-16T09:00:39;99217.66;;;20.75;58.39
9899;BME280;4988;49.238;6.698;2023-07-16T09:03:05;99222.91;;;20.55;59.33
9899;BME280;4988;49.238;6.698;2023-07-16T09:05:32;99229.03;;;20.36;60.20
9899;BME280;4988;49.238;6.698;2023-07-16T09:07:58;99233.00;;;20.32;59.99
9899;BME280;4988;49.238;6.698;2023-07-16T09:10:24;99226.00;;;20.50;60.78
9899;BME280;4988;49.238;6.698;2023-07-16T09:12:49;99216.56;;;20.87;59.45
9899;BME280;4988;49.238;6.698;2023-07-16T09:15:18;99224.06;;;21.04;58.63
9899;BME280;4988;49.238;6.698;2023-07-16T09:17:47;99226.94;;;21.13;58.64
9899;BME280;4988;49.238;6.698;2023-07-16T09:20:15;99226.06;;;21.12;58.89
9899;BME280;4988;49.238;6.698;2023-07-16T09:22:41;99225.72;;;20.96;58.23
9899;BME280;4988;49.238;6.698;2023-07-16T09:25:08;99233.19;;;21.13;59.51
9899;BME280;4988;49.238;6.698;2023-07-16T09:27:33;99218.53;;;21.16;55.69
9899;BME280;4988;49.238;6.698;2023-07-16T09:29:59;99235.63;;;20.85;56.40
9899;BME280;4988;49.238;6.698;2023-07-16T09:32:34;99233.78;;;20.65;56.85
9899;BME280;4988;49.238;6.698;2023-07-16T09:34:59;99238.84;;;20.58;58.29
9899;BME280;4988;49.238;6.698;2023-07-16T09:37:26;99236.81;;;20.93;57.67
9899;BME280;4988;49.238;6.698;2023-07-16T09:39:53;99224.63;;;21.08;54.29
9899;BME280;4988;49.238;6.698;2023-07-16T09:42:19;99231.72;;;21.40;55.25
9899;BME280;4988;49.238;6.698;2023-07-16T09:44:45;99221.50;;;21.53;54.90
9899;BME280;4988;49.238;6.698;2023-07-16T09:47:11;99229.13;;;21.69;54.68
9899;BME280;4988;49.238;6.698;2023-07-16T09:49:36;99231.53;;;21.73;54.33
9899;BME280;4988;49.238;6.698;2023-07-16T09:52:02;99226.84;;;21.84;54.21
9899;BME280;4988;49.238;6.698;2023-07-16T09:54:33;99236.97;;;21.73;54.44
9899;BME280;4988;49.238;6.698;2023-07-16T09:57:02;99228.88;;;21.42;55.40
9899;BME280;4988;49.238;6.698;2023-07-16T09:59:30;99234.28;;;21.01;55.97
9899;BME280;4988;49.238;6.698;2023-07-16T10:01:56;99235.91;;;20.82;55.86
9899;BME280;4988;49.238;6.698;2023-07-16T10:04:23;99236.69;;;20.73;56.41
9899;BME280;4988;49.238;6.698;2023-07-16T10:06:53;99236.34;;;20.87;58.30
9899;BME280;4988;49.238;6.698;2023-07-16T10:09:35;99242.34;;;21.22;57.41
9899;BME280;4988;49.238;6.698;2023-07-16T10:12:16;99221.97;;;21.59;55.76
9899;BME280;4988;49.238;6.698;2023-07-16T10:14:44;99230.19;;;21.47;55.06
9899;BME280;4988;49.238;6.698;2023-07-16T10:17:20;99231.91;;;21.48;56.45
9899;BME280;4988;49.238;6.698;2023-07-16T10:19:56;99225.41;;;21.30;56.03
9899;BME280;4988;49.238;6.698;2023-07-16T10:25:25;99224.00;;;21.76;55.21
9899;BME280;4988;49.238;6.698;2023-07-16T10:27:52;99223.22;;;21.55;54.99
9899;BME280;4988;49.238;6.698;2023-07-16T10:30:18;99220.03;;;21.40;55.04
9899;BME280;4988;49.238;6.698;2023-07-16T10:32:44;99228.72;;;21.43;55.23
9899;BME280;4988;49.238;6.698;2023-07-16T10:35:10;99217.72;;;21.25;55.68
9899;BME280;4988;49.238;6.698;2023-07-16T10:37:37;99220.75;;;21.01;54.14
9899;BME280;4988;49.238;6.698;2023-07-16T10:40:03;99222.03;;;20.97;54.78
9899;BME280;4988;49.238;6.698;2023-07-16T10:42:30;99220.44;;;21.25;54.47
9899;BME280;4988;49.238;6.698;2023-07-16T10:45:00;99212.47;;;21.43;54.78
9899;BME280;4988;49.238;6.698;2023-07-16T10:47:36;99211.44;;;21.75;54.78
9899;BME280;4988;49.238;6.698;2023-07-16T10:50:09;99206.75;;;22.07;54.68
9899;BME280;4988;49.238;6.698;2023-07-16T10:52:35;99208.16;;;22.21;52.73
9899;BME280;4988;49.238;6.698;2023-07-16T10:55:01;99201.63;;;21.74;52.03
9899;BME280;4988;49.238;6.698;2023-07-16T10:57:27;99202.16;;;21.88;52.36
9899;BME280;4988;49.238;6.698;2023-07-16T10:59:55;99205.44;;;22.21;52.96
9899;BME280;4988;49.238;6.698;2023-07-16T11:02:22;99202.16;;;22.46;51.51
9899;BME280;4988;49.238;6.698;2023-07-16T11:04:48;99193.25;;;22.64;51.95
9899;BME280;4988;49.238;6.698;2023-07-16T11:07:15;99195.63;;;22.87;50.85
9899;BME280;4988;49.238;6.698;2023-07-16T11:09:47;99199.69;;;22.73;50.68
9899;BME280;4988;49.238;6.698;2023-07-16T11:12:19;99201.28;;;23.03;50.37
9899;BME280;4988;49.238;6.698;2023-07-16T11:14:48;99203.78;;;23.14;50.90
9899;BME280;4988;49.238;6.698;2023-07-16T11:17:13;99199.84;;;23.37;50.68
9899;BME280;4988;49.238;6.698;2023-07-16T11:19:40;99188.34;;;23.25;50.33
9899;BME280;4988;49.238;6.698;2023-07-16T11:22:06;99190.78;;;23.46;49.48
9899;BME280;4988;49.238;6.698;2023-07-16T11:24:44;99200.50;;;23.49;50.44
9899;BME280;4988;49.238;6.698;2023-07-16T11:27:14;99183.31;;;22.92;47.25
9899;BME280;4988;49.238;6.698;2023-07-16T11:29:45;99193.22;;;23.21;49.44
9899;BME280;4988;49.238;6.698;2023-07-16T11:32:11;99181.00;;;23.35;49.52
9899;BME280;4988;49.238;6.698;2023-07-16T11:34:36;99176.09;;;23.39;48.82
9899;BME280;4988;49.238;6.698;2023-07-16T11:37:11;99186.06;;;23.48;47.99
9899;BME280;4988;49.238;6.698;2023-07-16T11:39:37;99202.25;;;23.68;48.80
9899;BME280;4988;49.238;6.698;2023-07-16T11:42:03;99175.75;;;23.88;48.23
9899;BME280;4988;49.238;6.698;2023-07-16T11:44:33;99171.94;;;24.17;47.61
9899;BME280;4988;49.238;6.698;2023-07-16T11:46:59;99171.94;;;24.35;47.54
9899;BME280;4988;49.238;6.698;2023-07-16T11:49:25;99163.75;;;24.61;47.04
9899;BME280;4988;49.238;6.698;2023-07-16T11:51:50;99175.53;;;24.35;46.08
9899;BME280;4988;49.238;6.698;2023-07-16T11:54:15;99174.22;;;24.21;45.67
9899;BME280;4988;49.238;6.698;2023-07-16T11:56:40;99178.28;;;24.44;46.51
9899;BME280;4988;49.238;6.698;2023-07-16T11:59:06;99164.78;;;24.34;45.39
9899;BME280;4988;49.238;6.698;2023-07-16T12:01:31;99177.25;;;24.00;45.76
9899;BME280;4988;49.238;6.698;2023-07-16T12:03:56;99172.91;;;23.71;45.44
9899;BME280;4988;49.238;6.698;2023-07-16T12:06:22;99180.81;;;23.83;46.22
9899;BME280;4988;49.238;6.698;2023-07-16T12:08:47;99179.59;;;23.95;47.06
9899;BME280;4988;49.238;6.698;2023-07-16T12:11:12;99173.28;;;23.76;46.60
9899;BME280;4988;49.238;6.698;2023-07-16T12:14:02;99175.91;;;23.68;46.89
9899;BME280;4988;49.238;6.698;2023-07-16T12:16:45;99170.09;;;23.63;46.50
9899;BME280;4988;49.238;6.698;2023-07-16T12:19:20;99169.47;;;23.69;46.54
9899;BME280;4988;49.238;6.698;2023-07-16T12:21:45;99163.28;;;23.31;46.88
9899;BME280;4988;49.238;6.698;2023-07-16T12:24:11;99165.88;;;23.69;48.17
9899;BME280;4988;49.238;6.698;2023-07-16T12:26:37;99156.69;;;23.98;46.04
9899;BME280;4988;49.238;6.698;2023-07-16T12:29:02;99157.34;;;24.18;46.60
9899;BME280;4988;49.238;6.698;2023-07-16T12:31:30;99149.66;;;24.13;45.49
9899;BME280;4988;49.238;6.698;2023-07-16T12:33:56;99162.16;;;24.24;47.03
9899;BME280;4988;49.238;6.698;2023-07-16T12:36:21;99148.69;;;24.40;45.94
9899;BME280;4988;49.238;6.698;2023-07-16T12:38:46;99147.97;;;24.65;46.36
9899;BME280;4988;49.238;6.698;2023-07-16T12:41:12;99155.91;;;24.84;45.14
9899;BME280;4988;49.238;6.698;2023-07-16T12:43:37;99141.13;;;24.87;44.76
9899;BME280;4988;49.238;6.698;2023-07-16T12:46:04;99150.75;;;24.73;45.01
9899;BME280;4988;49.238;6.698;2023-07-16T12:48:32;99144.97;;;24.50;44.92
9899;BME280;4988;49.238;6.698;2023-07-16T12:50:57;99146.22;;;24.55;45.63
9899;BME280;4988;49.238;6.698;2023-07-16T12:53:24;99140.94;;;24.54;45.25
9899;BME280;4988;49.238;6.698;2023-07-16T12:55:49;99151.16;;;24.07;44.39
9899;BME280;4988;49.238;6.698;2023-07-16T12:58:15;99156.06;;;24.30;44.85
9899;BME280;4988;49.238;6.698;2023-07-16T13:00:40;99160.56;;;24.39;45.23
9899;BME280;4988;49.238;6.698;2023-07-16T13:03:05;99155.34;;;24.46;44.38
9899;BME280;4988;49.238;6.698;2023-07-16T13:05:33;99149.78;;;24.56;44.54
9899;BME280;4988;49.238;6.698;2023-07-16T13:07:58;99160.47;;;24.49;45.00
9899;BME280;4988;49.238;6.698;2023-07-16T13:10:23;99156.47;;;24.62;44.64
9899;BME280;4988;49.238;6.698;2023-07-16T13:12:49;99162.94;;;24.34;44.34
9899;BME280;4988;49.238;6.698;2023-07-16T13:15:14;99164.41;;;24.11;45.43
9899;BME280;4988;49.238;6.698;2023-07-16T13:17:40;99160.69;;;24.12;45.36
9899;BME280;4988;49.238;6.698;2023-07-16T13:20:06;99158.69;;;24.14;46.21
9899;BME280;4988;49.238;6.698;2023-07-16T13:22:31;99160.66;;;24.03;46.01